Time,TemperatureF,DewpointF,PressureIn,WindDirection,WindDirectionDegrees,WindSpeedMPH,WindSpeedGustMPH,Humidity,HourlyPrecipIn,Conditions,Clouds,dailyrainin,SoftwareType,DateUTC
2013-06-11 00:02:00,51.3,50.7,29.97,SW,222,4.0,6.0,98,0.00,,,0.04,meteohub,2013-06-11 07:02:00,
2013-06-11 00:07:00,51.3,50.7,29.97,West,278,4.0,5.0,98,0.00,,,0.00,meteohub,2013-06-11 07:07:00,
2013-06-11 00:12:00,51.3,50.7,29.97,SW,218,4.0,7.0,98,0.00,,,0.00,meteohub,2013-06-11 07:12:00,
2013-06-11 00:17:00,51.3,50.7,29.97,SSW,207,2.0,7.0,98,0.00,,,0.00,meteohub,2013-06-11 07:17:00,
2013-06-11 00:22:00,51.3,50.7,29.97,WSW,257,2.0,7.0,98,0.00,,,0.00,meteohub,2013-06-11 07:22:00,
2013-06-11 00:27:00,51.3,50.4,29.96,WSW,257,2.0,5.0,97,0.00,,,0.00,meteohub,2013-06-11 07:27:00,
2013-06-11 00:32:00,51.1,50.5,29.96,WSW,246,2.0,5.0,98,0.00,,,0.00,meteohub,2013-06-11 07:32:00,
2013-06-11 00:38:00,51.1,50.5,29.96,WSW,246,0.0,5.0,98,0.00,,,0.00,meteohub,2013-06-11 07:38:00,
2013-06-11 00:43:00,51.1,50.5,29.96,WSW,246,2.0,5.0,98,0.00,,,0.00,meteohub,2013-06-11 07:43:00,
2013-06-11 00:48:00,51.1,50.5,29.96,North,5,0.0,4.0,98,0.00,,,0.00,meteohub,2013-06-11 07:48:00,
2013-06-11 00:53:00,51.1,50.5,29.96,North,355,0.0,4.0,98,0.00,,,0.00,meteohub,2013-06-11 07:53:00,
2013-06-11 00:58:00,50.9,50.4,29.96,North,355,0.0,4.0,98,0.00,,,0.00,meteohub,2013-06-11 07:58:00,
2013-06-11 01:03:00,50.9,50.0,29.96,North,355,0.0,4.0,97,0.00,,,0.00,meteohub,2013-06-11 08:03:00,
2013-06-11 01:08:00,50.7,49.8,29.96,North,355,0.0,3.0,97,0.00,,,0.00,meteohub,2013-06-11 08:08:00,
2013-06-11 01:13:00,50.7,49.8,29.96,North,355,0.0,2.0,97,0.00,,,0.00,meteohub,2013-06-11 08:13:00,
2013-06-11 01:18:00,50.5,49.6,29.96,North,355,1.0,2.0,97,0.00,,,0.00,meteohub,2013-06-11 08:18:00,
2013-06-11 01:23:00,50.4,49.8,29.96,North,355,0.0,2.0,98,0.00,,,0.00,meteohub,2013-06-11 08:23:00,
2013-06-11 01:28:00,50.4,49.5,29.96,North,355,0.0,2.0,97,0.00,,,0.00,meteohub,2013-06-11 08:28:00,
2013-06-11 01:33:00,50.2,49.3,29.96,North,355,0.0,2.0,97,0.00,,,0.00,meteohub,2013-06-11 08:33:00,
2013-06-11 01:38:00,50.2,49.3,29.96,North,355,0.0,2.0,97,0.00,,,0.00,meteohub,2013-06-11 08:38:00,
2013-06-11 01:43:00,50.2,49.3,29.95,North,355,0.0,1.0,97,0.00,,,0.00,meteohub,2013-06-11 08:43:00,
2013-06-11 01:48:00,49.8,48.9,29.96,North,355,0.0,0.0,97,0.00,,,0.00,meteohub,2013-06-11 08:48:00,
2013-06-11 01:53:00,49.6,48.7,29.95,North,355,0.0,1.0,97,0.00,,,0.00,meteohub,2013-06-11 08:53:00,
2013-06-11 01:58:00,49.5,48.6,29.96,North,355,0.0,1.0,97,0.00,,,0.00,meteohub,2013-06-11 08:58:00,
2013-06-11 02:03:00,49.3,48.4,29.95,North,355,0.0,1.0,97,0.00,,,0.00,meteohub,2013-06-11 09:03:00,
2013-06-11 02:08:00,49.1,48.2,29.95,North,355,0.0,0.0,97,0.00,,,0.00,meteohub,2013-06-11 09:08:00,
2013-06-11 02:13:00,48.9,48.0,29.95,North,355,0.0,0.0,97,0.00,,,0.00,meteohub,2013-06-11 09:13:00,
2013-06-11 02:18:00,48.7,47.7,29.95,North,355,0.0,0.0,96,0.00,,,0.00,meteohub,2013-06-11 09:18:00,
2013-06-11 02:23:00,48.6,47.7,29.95,North,355,0.0,0.0,97,0.00,,,0.00,meteohub,2013-06-11 09:23:00,
2013-06-11 02:28:00,48.2,47.3,29.95,North,355,1.0,0.0,97,0.00,,,0.00,meteohub,2013-06-11 09:28:00,
2013-06-11 02:33:00,47.8,46.8,29.95,North,355,0.0,2.0,96,0.00,,,0.00,meteohub,2013-06-11 09:33:00,
2013-06-11 02:38:00,47.7,46.9,29.95,North,355,0.0,2.0,97,0.00,,,0.00,meteohub,2013-06-11 09:38:00,
2013-06-11 02:43:00,47.5,46.8,29.95,North,355,0.0,2.0,97,0.00,,,0.00,meteohub,2013-06-11 09:43:00,
2013-06-11 02:48:00,47.3,46.6,29.95,North,355,0.0,2.0,97,0.00,,,0.00,meteohub,2013-06-11 09:48:00,
2013-06-11 02:53:00,47.1,46.4,29.95,North,355,0.0,2.0,97,0.00,,,0.00,meteohub,2013-06-11 09:53:00,
2013-06-11 02:58:00,46.9,46.2,29.95,North,355,2.0,2.0,97,0.00,,,0.00,meteohub,2013-06-11 09:58:00,
2013-06-11 03:03:00,47.1,46.4,29.94,North,355,1.0,3.0,97,0.00,,,0.00,meteohub,2013-06-11 10:03:00,
2013-06-11 03:08:00,46.9,46.2,29.94,North,355,0.0,3.0,97,0.00,,,0.00,meteohub,2013-06-11 10:08:00,
2013-06-11 03:13:00,46.8,46.2,29.94,North,355,1.0,3.0,98,0.00,,,0.00,meteohub,2013-06-11 10:13:00,
2013-06-11 03:18:00,46.6,45.9,29.94,North,355,1.0,3.0,97,0.00,,,0.00,meteohub,2013-06-11 10:18:00,
2013-06-11 03:23:00,46.2,45.7,29.94,North,355,2.0,3.0,98,0.00,,,0.00,meteohub,2013-06-11 10:23:00,
2013-06-11 03:28:00,46.4,45.9,29.94,North,355,0.0,3.0,98,0.00,,,0.00,meteohub,2013-06-11 10:28:00,
2013-06-11 03:33:00,46.4,45.9,29.94,North,355,1.0,2.0,98,0.00,,,0.00,meteohub,2013-06-11 10:33:00,
2013-06-11 03:38:00,46.2,45.7,29.94,North,355,0.0,2.0,98,0.00,,,0.00,meteohub,2013-06-11 10:38:00,
2013-06-11 03:43:00,46.0,45.5,29.94,North,355,1.0,2.0,98,0.00,,,0.00,meteohub,2013-06-11 10:43:00,
2013-06-11 03:48:00,46.0,45.5,29.94,North,355,0.0,2.0,98,0.00,,,0.00,meteohub,2013-06-11 10:48:00,
2013-06-11 03:53:00,46.0,45.5,29.94,North,355,0.0,2.0,98,0.00,,,0.00,meteohub,2013-06-11 10:53:00,
2013-06-11 03:58:00,46.0,45.5,29.94,North,355,0.0,2.0,98,0.00,,,0.00,meteohub,2013-06-11 10:58:00,
2013-06-11 04:03:00,46.0,45.5,29.94,North,355,0.0,1.0,98,0.00,,,0.00,meteohub,2013-06-11 11:03:00,
2013-06-11 04:08:00,46.0,45.5,29.94,North,355,0.0,0.0,98,0.00,,,0.00,meteohub,2013-06-11 11:08:00,
2013-06-11 04:13:00,45.9,45.3,29.94,North,355,0.0,0.0,98,0.00,,,0.00,meteohub,2013-06-11 11:13:00,
2013-06-11 04:18:00,45.7,45.1,29.94,North,355,1.0,1.0,98,0.00,,,0.00,meteohub,2013-06-11 11:18:00,
2013-06-11 04:23:00,45.7,45.1,29.94,North,355,0.0,2.0,98,0.00,,,0.00,meteohub,2013-06-11 11:23:00,
2013-06-11 04:28:00,45.7,45.1,29.93,North,355,1.0,2.0,98,0.00,,,0.00,meteohub,2013-06-11 11:28:00,
2013-06-11 04:33:00,45.7,45.1,29.94,North,355,0.0,2.0,98,0.00,,,0.00,meteohub,2013-06-11 11:33:00,
2013-06-11 04:38:00,45.9,45.3,29.94,North,355,0.0,2.0,98,0.00,,,0.00,meteohub,2013-06-11 11:38:00,
2013-06-11 04:43:00,45.9,45.7,29.94,North,355,1.0,2.0,99,0.00,,,0.00,meteohub,2013-06-11 11:43:00,
2013-06-11 04:48:00,46.4,46.2,29.94,North,355,0.0,3.0,99,0.00,,,0.00,meteohub,2013-06-11 11:48:00,
2013-06-11 04:53:00,46.6,46.4,29.94,North,355,0.0,3.0,99,0.01,,,0.01,meteohub,2013-06-11 11:53:00,
2013-06-11 04:58:00,46.9,46.8,29.95,North,355,0.0,3.0,99,0.01,,,0.01,meteohub,2013-06-11 11:58:00,
2013-06-11 05:03:00,46.8,46.6,29.95,North,355,0.0,1.0,99,0.01,,,0.01,meteohub,2013-06-11 12:03:00,
2013-06-11 05:08:00,46.6,46.0,29.95,North,355,0.0,1.0,98,0.01,,,0.01,meteohub,2013-06-11 12:08:00,
2013-06-11 05:13:00,46.9,46.8,29.96,North,355,1.0,1.0,99,0.01,,,0.01,meteohub,2013-06-11 12:13:00,
2013-06-11 05:18:00,47.5,47.3,29.95,North,355,0.0,3.0,99,0.01,,,0.01,meteohub,2013-06-11 12:18:00,
2013-06-11 05:24:00,47.7,47.5,29.95,North,355,0.0,3.0,99,0.01,,,0.01,meteohub,2013-06-11 12:24:00,
2013-06-11 05:29:00,48.0,47.8,29.95,North,355,0.0,3.0,99,0.01,,,0.01,meteohub,2013-06-11 12:29:00,
2013-06-11 05:34:00,48.0,47.8,29.95,North,355,0.0,2.0,99,0.01,,,0.01,meteohub,2013-06-11 12:34:00,
2013-06-11 05:39:00,48.6,48.4,29.96,North,355,0.0,1.0,99,0.01,,,0.01,meteohub,2013-06-11 12:39:00,
2013-06-11 05:44:00,48.7,48.7,29.95,North,355,1.0,2.0,100,0.01,,,0.01,meteohub,2013-06-11 12:44:00,
2013-06-11 05:49:00,48.9,48.7,29.95,North,355,1.0,2.0,99,0.01,,,0.01,meteohub,2013-06-11 12:49:00,
2013-06-11 05:54:00,49.1,48.9,29.95,North,355,1.0,2.0,99,0.00,,,0.01,meteohub,2013-06-11 12:54:00,
2013-06-11 05:59:00,49.3,49.1,29.95,North,355,0.0,3.0,99,0.00,,,0.01,meteohub,2013-06-11 12:59:00,
2013-06-11 06:04:00,49.1,48.9,29.95,North,355,0.0,3.0,99,0.00,,,0.01,meteohub,2013-06-11 13:04:00,
2013-06-11 06:09:00,48.6,48.4,29.95,North,355,1.0,3.0,99,0.00,,,0.01,meteohub,2013-06-11 13:09:00,
2013-06-11 06:14:00,48.4,48.2,29.95,North,355,0.0,3.0,99,0.00,,,0.01,meteohub,2013-06-11 13:14:00,
2013-06-11 06:19:00,48.2,48.0,29.95,North,355,0.0,3.0,99,0.00,,,0.01,meteohub,2013-06-11 13:19:00,
2013-06-11 06:24:00,48.2,48.0,29.95,North,355,0.0,3.0,99,0.00,,,0.01,meteohub,2013-06-11 13:24:00,
2013-06-11 06:29:00,48.2,48.0,29.95,North,355,0.0,1.0,99,0.00,,,0.01,meteohub,2013-06-11 13:29:00,
2013-06-11 06:34:00,48.2,48.0,29.95,North,355,0.0,1.0,99,0.00,,,0.01,meteohub,2013-06-11 13:34:00,
2013-06-11 06:39:00,48.0,47.8,29.95,North,355,0.0,0.0,99,0.00,,,0.01,meteohub,2013-06-11 13:39:00,
2013-06-11 06:44:00,48.0,47.8,29.95,North,355,0.0,0.0,99,0.00,,,0.01,meteohub,2013-06-11 13:44:00,
2013-06-11 06:49:00,48.0,47.8,29.95,North,355,0.0,0.0,99,0.00,,,0.01,meteohub,2013-06-11 13:49:00,
2013-06-11 06:54:00,48.4,48.2,29.95,North,355,0.0,0.0,99,0.00,,,0.01,meteohub,2013-06-11 13:54:00,
2013-06-11 06:59:00,48.6,48.4,29.95,North,355,0.0,0.0,99,0.00,,,0.01,meteohub,2013-06-11 13:59:00,
2013-06-11 07:04:00,48.7,48.7,29.95,North,355,0.0,0.0,100,0.00,,,0.01,meteohub,2013-06-11 14:04:00,
2013-06-11 07:09:00,49.1,49.1,29.96,North,355,0.0,1.0,100,0.00,,,0.01,meteohub,2013-06-11 14:09:00,
2013-06-11 07:14:00,49.5,49.5,29.96,North,355,0.0,1.0,100,0.00,,,0.01,meteohub,2013-06-11 14:14:00,
2013-06-11 07:19:00,49.5,49.5,29.96,North,351,1.0,1.0,100,0.00,,,0.01,meteohub,2013-06-11 14:19:00,
2013-06-11 07:24:00,49.8,49.8,29.96,North,351,0.0,2.0,100,0.00,,,0.01,meteohub,2013-06-11 14:24:00,
2013-06-11 07:29:00,50.2,50.2,29.96,NW,305,0.0,3.0,100,0.00,,,0.01,meteohub,2013-06-11 14:29:00,
2013-06-11 07:34:00,50.4,50.4,29.97,NW,305,3.0,5.0,100,0.00,,,0.01,meteohub,2013-06-11 14:34:00,
2013-06-11 07:39:00,50.5,50.5,29.97,NW,305,1.0,5.0,100,0.00,,,0.01,meteohub,2013-06-11 14:39:00,
2013-06-11 07:44:00,50.7,50.7,29.97,NW,305,0.0,5.0,100,0.00,,,0.01,meteohub,2013-06-11 14:44:00,
2013-06-11 07:49:00,51.3,51.3,29.97,WNW,284,2.0,4.0,100,0.00,,,0.01,meteohub,2013-06-11 14:49:00,
2013-06-11 07:54:00,51.3,51.3,29.98,WNW,286,3.0,4.0,100,0.00,,,0.01,meteohub,2013-06-11 14:54:00,
2013-06-11 07:59:00,51.3,51.3,29.98,WNW,286,0.0,4.0,100,0.00,,,0.01,meteohub,2013-06-11 14:59:00,
2013-06-11 08:04:00,51.4,51.4,29.98,WNW,287,4.0,4.0,100,0.00,,,0.01,meteohub,2013-06-11 15:04:00,
2013-06-11 08:09:00,51.4,51.4,29.98,WNW,287,0.0,4.0,100,0.00,,,0.01,meteohub,2013-06-11 15:09:00,
2013-06-11 08:14:00,51.6,51.6,29.98,WNW,287,0.0,4.0,100,0.00,,,0.01,meteohub,2013-06-11 15:14:00,
2013-06-11 08:19:00,51.8,51.8,29.98,WNW,287,0.0,4.0,100,0.00,,,0.01,meteohub,2013-06-11 15:19:00,
2013-06-11 08:24:00,52.2,52.2,29.98,WNW,287,0.0,3.0,100,0.00,,,0.01,meteohub,2013-06-11 15:24:00,
2013-06-11 08:29:00,52.7,52.7,29.98,WNW,286,2.0,3.0,100,0.00,,,0.01,meteohub,2013-06-11 15:29:00,
2013-06-11 08:34:00,53.2,53.2,29.98,SSE,163,1.0,3.0,100,0.00,,,0.01,meteohub,2013-06-11 15:34:00,
2013-06-11 08:39:00,53.8,53.8,29.99,SW,223,2.0,4.0,100,0.00,,,0.01,meteohub,2013-06-11 15:39:00,
2013-06-11 08:44:00,54.0,54.0,29.98,SW,223,0.0,4.0,100,0.00,,,0.01,meteohub,2013-06-11 15:44:00,
2013-06-11 08:49:00,54.5,54.5,29.99,SW,223,2.0,4.0,100,0.00,,,0.01,meteohub,2013-06-11 15:49:00,
2013-06-11 08:55:00,54.9,54.9,29.99,SW,217,2.0,6.0,100,0.00,,,0.01,meteohub,2013-06-11 15:55:00,
2013-06-11 09:00:00,55.0,54.7,29.99,SW,217,3.0,6.0,99,0.00,,,0.01,meteohub,2013-06-11 16:00:00,
2013-06-11 09:05:00,55.6,55.2,29.99,SW,217,3.0,6.0,99,0.00,,,0.01,meteohub,2013-06-11 16:05:00,
2013-06-11 09:10:00,55.8,55.2,29.99,SW,217,2.0,5.0,98,0.00,,,0.01,meteohub,2013-06-11 16:10:00,
2013-06-11 09:15:00,56.1,55.2,30.00,SW,217,3.0,5.0,97,0.00,,,0.01,meteohub,2013-06-11 16:15:00,
2013-06-11 09:20:00,56.7,55.2,30.00,SSE,161,1.0,6.0,95,0.00,,,0.01,meteohub,2013-06-11 16:20:00,
2013-06-11 09:25:00,57.0,55.0,30.00,SSE,166,2.0,6.0,93,0.00,,,0.01,meteohub,2013-06-11 16:25:00,
2013-06-11 09:30:00,57.6,55.2,29.99,SSW,211,1.0,6.0,92,0.00,,,0.01,meteohub,2013-06-11 16:30:00,
2013-06-11 09:35:00,58.3,55.6,29.99,South,171,4.0,5.0,91,0.00,,,0.01,meteohub,2013-06-11 16:35:00,
2013-06-11 09:40:00,58.5,54.9,29.99,South,184,2.0,6.0,88,0.00,,,0.01,meteohub,2013-06-11 16:40:00,
2013-06-11 09:45:00,58.8,55.0,29.99,SW,214,1.0,6.0,87,0.00,,,0.01,meteohub,2013-06-11 16:45:00,
2013-06-11 09:50:00,59.4,55.2,29.99,SSW,193,4.0,6.0,86,0.00,,,0.01,meteohub,2013-06-11 16:50:00,
2013-06-11 09:55:00,59.7,55.8,29.99,SSW,200,2.0,5.0,87,0.00,,,0.01,meteohub,2013-06-11 16:55:00,
2013-06-11 10:00:00,60.1,55.2,29.99,South,180,4.0,5.0,84,0.00,,,0.01,meteohub,2013-06-11 17:00:00,
2013-06-11 10:05:00,60.4,55.6,29.99,WSW,246,2.0,6.0,84,0.00,,,0.01,meteohub,2013-06-11 17:05:00,
2013-06-11 10:10:00,61.2,56.3,29.99,WSW,246,4.0,6.0,84,0.00,,,0.01,meteohub,2013-06-11 17:10:00,
2013-06-11 10:15:00,61.3,55.4,29.99,WSW,240,3.0,6.0,81,0.00,,,0.01,meteohub,2013-06-11 17:15:00,
2013-06-11 10:20:00,61.9,56.3,29.99,SSW,196,2.0,5.0,82,0.00,,,0.01,meteohub,2013-06-11 17:20:00,
2013-06-11 10:25:00,62.6,57.0,29.99,SW,221,3.0,5.0,82,0.00,,,0.01,meteohub,2013-06-11 17:25:00,
2013-06-11 10:30:00,63.3,56.3,29.99,SW,221,4.0,6.0,78,0.00,,,0.01,meteohub,2013-06-11 17:30:00,
2013-06-11 10:35:00,63.7,56.3,29.99,SSW,208,1.0,6.0,77,0.00,,,0.01,meteohub,2013-06-11 17:35:00,
2013-06-11 10:40:00,64.0,57.0,29.99,SW,216,1.0,6.0,78,0.00,,,0.01,meteohub,2013-06-11 17:40:00,
2013-06-11 10:45:00,64.8,57.4,29.99,SW,234,3.0,6.0,77,0.00,,,0.01,meteohub,2013-06-11 17:45:00,
2013-06-11 10:50:00,64.9,57.2,29.99,SSE,163,4.0,6.0,76,0.00,,,0.01,meteohub,2013-06-11 17:50:00,
2013-06-11 10:55:00,65.1,57.0,29.99,SSW,207,3.0,6.0,75,0.00,,,0.01,meteohub,2013-06-11 17:55:00,
2013-06-11 11:00:00,65.5,56.7,29.99,SSE,155,4.0,6.0,73,0.00,,,0.01,meteohub,2013-06-11 18:00:00,
2013-06-11 11:05:00,65.5,57.0,29.99,SSW,204,2.0,7.0,74,0.00,,,0.01,meteohub,2013-06-11 18:05:00,
2013-06-11 11:10:00,65.8,57.4,29.99,SSW,198,1.0,7.0,74,0.00,,,0.01,meteohub,2013-06-11 18:10:00,
2013-06-11 11:15:00,66.2,56.8,29.99,SSW,194,4.0,7.0,72,0.00,,,0.01,meteohub,2013-06-11 18:15:00,
2013-06-11 11:20:00,66.7,57.4,30.00,SW,223,4.0,7.0,72,0.00,,,0.01,meteohub,2013-06-11 18:20:00,
2013-06-11 11:25:00,66.7,57.0,30.00,South,177,4.0,7.0,71,0.00,,,0.01,meteohub,2013-06-11 18:25:00,
2013-06-11 11:30:00,66.7,57.0,30.00,WSW,238,4.0,7.0,71,0.00,,,0.01,meteohub,2013-06-11 18:30:00,
2013-06-11 11:36:00,66.9,57.2,30.00,SSW,205,4.0,7.0,71,0.00,,,0.01,meteohub,2013-06-11 18:36:00,
2013-06-11 11:41:00,67.3,57.2,30.00,South,174,3.0,7.0,70,0.00,,,0.01,meteohub,2013-06-11 18:41:00,
2013-06-11 11:46:00,67.1,56.7,30.00,SSE,163,0.0,8.0,69,0.00,,,0.01,meteohub,2013-06-11 18:46:00,
2013-06-11 11:51:00,67.5,57.4,30.00,WSW,250,2.0,8.0,70,0.00,,,0.01,meteohub,2013-06-11 18:51:00,
2013-06-11 11:56:00,67.8,57.2,29.99,SW,233,3.0,8.0,69,0.00,,,0.01,meteohub,2013-06-11 18:56:00,
2013-06-11 12:01:00,68.2,56.8,29.99,South,189,7.0,8.0,67,0.00,,,0.01,meteohub,2013-06-11 19:01:00,
2013-06-11 12:06:00,68.4,57.0,29.99,SSW,200,4.0,8.0,67,0.00,,,0.01,meteohub,2013-06-11 19:06:00,
2013-06-11 12:11:00,68.5,56.7,29.99,SSE,150,0.0,9.0,66,0.00,,,0.01,meteohub,2013-06-11 19:11:00,
2013-06-11 12:16:00,68.5,57.2,29.99,SW,218,4.0,9.0,67,0.00,,,0.01,meteohub,2013-06-11 19:16:00,
2013-06-11 12:21:00,68.7,56.8,29.99,SSE,167,7.0,9.0,66,0.00,,,0.01,meteohub,2013-06-11 19:21:00,
2013-06-11 12:26:00,68.4,56.1,29.99,South,186,3.0,9.0,65,0.00,,,0.01,meteohub,2013-06-11 19:26:00,
2013-06-11 12:31:00,68.4,57.0,29.99,WSW,242,3.0,8.0,67,0.00,,,0.01,meteohub,2013-06-11 19:31:00,
2013-06-11 12:36:00,68.7,57.4,29.99,South,175,5.0,8.0,67,0.00,,,0.01,meteohub,2013-06-11 19:36:00,
2013-06-11 12:41:00,69.1,56.8,29.99,WSW,254,4.0,8.0,65,0.00,,,0.01,meteohub,2013-06-11 19:41:00,
2013-06-11 12:46:00,69.6,56.8,29.99,WSW,242,3.0,8.0,64,0.00,,,0.01,meteohub,2013-06-11 19:46:00,
2013-06-11 12:51:00,70.2,57.0,29.99,SW,223,4.0,9.0,63,0.00,,,0.01,meteohub,2013-06-11 19:51:00,
2013-06-11 12:57:00,70.3,57.6,29.99,SW,228,2.0,9.0,64,0.00,,,0.01,meteohub,2013-06-11 19:57:00,
2013-06-11 13:02:00,70.9,57.7,29.99,South,182,4.0,9.0,63,0.00,,,0.01,meteohub,2013-06-11 20:02:00,
2013-06-11 13:07:00,71.2,57.6,29.99,SSE,165,5.0,8.0,62,0.00,,,0.01,meteohub,2013-06-11 20:07:00,
2013-06-11 13:12:00,71.2,57.0,29.99,SSW,193,2.0,9.0,61,0.00,,,0.01,meteohub,2013-06-11 20:12:00,
2013-06-11 13:17:00,71.1,56.5,29.99,South,178,2.0,9.0,60,0.00,,,0.01,meteohub,2013-06-11 20:17:00,
2013-06-11 13:22:00,71.4,57.2,29.98,SSW,198,5.0,9.0,61,0.00,,,0.01,meteohub,2013-06-11 20:22:00,
2013-06-11 13:27:00,71.8,57.6,29.98,South,169,3.0,8.0,61,0.00,,,0.01,meteohub,2013-06-11 20:27:00,
2013-06-11 13:32:00,72.1,56.5,29.98,WSW,245,0.0,8.0,58,0.00,,,0.01,meteohub,2013-06-11 20:32:00,
2013-06-11 13:37:00,72.7,56.5,29.98,SSW,205,5.0,8.0,57,0.00,,,0.01,meteohub,2013-06-11 20:37:00,
2013-06-11 13:42:00,73.0,56.5,29.98,South,187,3.0,7.0,56,0.00,,,0.01,meteohub,2013-06-11 20:42:00,
2013-06-11 13:47:00,73.8,56.7,29.98,SSW,196,8.0,10.0,55,0.00,,,0.01,meteohub,2013-06-11 20:47:00,
2013-06-11 13:52:00,73.4,55.8,29.97,SSW,200,1.0,10.0,54,0.00,,,0.01,meteohub,2013-06-11 20:52:00,
2013-06-11 13:57:00,73.6,56.5,29.97,SSW,200,2.0,10.0,55,0.00,,,0.01,meteohub,2013-06-11 20:57:00,
2013-06-11 14:02:00,73.9,56.3,29.97,South,171,4.0,8.0,54,0.00,,,0.01,meteohub,2013-06-11 21:02:00,
2013-06-11 14:07:00,73.9,56.3,29.97,SSW,202,5.0,8.0,54,0.00,,,0.01,meteohub,2013-06-11 21:07:00,
2013-06-11 14:12:00,74.1,56.8,29.97,SW,223,8.0,8.0,55,0.00,,,0.01,meteohub,2013-06-11 21:12:00,
2013-06-11 14:17:00,74.7,55.9,29.97,SSW,200,2.0,11.0,52,0.00,,,0.01,meteohub,2013-06-11 21:17:00,
2013-06-11 14:22:00,74.8,56.5,29.96,WSW,242,5.0,11.0,53,0.00,,,0.01,meteohub,2013-06-11 21:22:00,
2013-06-11 14:27:00,75.4,56.5,29.96,SSW,196,3.0,11.0,52,0.00,,,0.01,meteohub,2013-06-11 21:27:00,
2013-06-11 14:32:00,75.6,56.1,29.96,WSW,246,3.0,9.0,51,0.00,,,0.01,meteohub,2013-06-11 21:32:00,
2013-06-11 14:37:00,76.1,56.1,29.96,South,190,5.0,9.0,50,0.00,,,0.01,meteohub,2013-06-11 21:37:00,
2013-06-11 14:42:00,76.3,56.3,29.96,SW,223,3.0,9.0,50,0.00,,,0.01,meteohub,2013-06-11 21:42:00,
2013-06-11 14:47:00,76.5,55.9,29.96,WSW,248,7.0,8.0,49,0.00,,,0.01,meteohub,2013-06-11 21:47:00,
2013-06-11 14:52:00,76.3,56.3,29.96,South,183,7.0,8.0,50,0.00,,,0.01,meteohub,2013-06-11 21:52:00,
2013-06-11 14:57:00,76.3,56.3,29.95,South,176,4.0,8.0,50,0.00,,,0.01,meteohub,2013-06-11 21:57:00,
2013-06-11 15:02:00,76.1,55.6,29.95,SSW,211,5.0,8.0,49,0.00,,,0.01,meteohub,2013-06-11 22:02:00,
2013-06-11 15:07:00,76.5,55.4,29.95,South,177,3.0,8.0,48,0.00,,,0.01,meteohub,2013-06-11 22:07:00,
2013-06-11 15:12:00,76.8,53.8,29.95,WSW,257,2.0,8.0,45,0.00,,,0.01,meteohub,2013-06-11 22:12:00,
2013-06-11 15:17:00,76.8,54.5,29.95,South,180,4.0,8.0,46,0.00,,,0.01,meteohub,2013-06-11 22:17:00,
2013-06-11 15:22:00,77.2,54.9,29.95,SW,225,5.0,9.0,46,0.00,,,0.01,meteohub,2013-06-11 22:22:00,
2013-06-11 15:27:00,77.5,54.5,29.95,South,174,3.0,9.0,45,0.00,,,0.01,meteohub,2013-06-11 22:27:00,
2013-06-11 15:32:00,77.5,55.8,29.94,SSW,205,6.0,9.0,47,0.00,,,0.01,meteohub,2013-06-11 22:32:00,
2013-06-11 15:37:00,77.7,54.7,29.94,South,190,4.0,8.0,45,0.00,,,0.01,meteohub,2013-06-11 22:37:00,
2013-06-11 15:42:00,77.9,54.9,29.94,SSW,204,2.0,10.0,45,0.00,,,0.01,meteohub,2013-06-11 22:42:00,
2013-06-11 15:47:00,78.3,57.0,29.94,WSW,254,3.0,10.0,48,0.00,,,0.01,meteohub,2013-06-11 22:47:00,
2013-06-11 15:52:00,78.3,57.6,29.94,SW,229,3.0,10.0,49,0.00,,,0.01,meteohub,2013-06-11 22:52:00,
2013-06-11 15:57:00,78.1,56.8,29.94,West,267,2.0,10.0,48,0.00,,,0.01,meteohub,2013-06-11 22:57:00,
2013-06-11 16:02:00,78.3,57.6,29.94,SSW,195,3.0,10.0,49,0.00,,,0.01,meteohub,2013-06-11 23:02:00,
2013-06-11 16:07:00,78.1,58.5,29.94,WSW,246,4.0,10.0,51,0.00,,,0.01,meteohub,2013-06-11 23:07:00,
2013-06-11 16:12:00,78.1,56.8,29.94,SW,234,2.0,9.0,48,0.00,,,0.01,meteohub,2013-06-11 23:12:00,
2013-06-11 16:17:00,78.1,56.3,29.93,SW,221,3.0,9.0,47,0.00,,,0.01,meteohub,2013-06-11 23:17:00,
2013-06-11 16:22:00,78.1,57.4,29.93,West,280,5.0,9.0,49,0.00,,,0.01,meteohub,2013-06-11 23:22:00,
2013-06-11 16:27:00,77.9,57.7,29.93,West,263,5.0,9.0,50,0.00,,,0.01,meteohub,2013-06-11 23:27:00,
2013-06-11 16:32:00,77.7,58.1,29.93,West,261,3.0,9.0,51,0.00,,,0.01,meteohub,2013-06-11 23:32:00,
2013-06-11 16:37:00,78.1,59.0,29.93,WNW,296,5.0,9.0,52,0.00,,,0.01,meteohub,2013-06-11 23:37:00,
2013-06-11 16:43:00,78.3,58.6,29.92,SSW,211,5.0,9.0,51,0.00,,,0.01,meteohub,2013-06-11 23:43:00,
2013-06-11 16:48:00,78.1,57.9,29.92,West,278,4.0,8.0,50,0.00,,,0.01,meteohub,2013-06-11 23:48:00,
2013-06-11 16:53:00,78.1,59.0,29.92,SW,221,4.0,9.0,52,0.00,,,0.01,meteohub,2013-06-11 23:53:00,
2013-06-11 16:58:00,78.4,58.8,29.92,SW,232,7.0,9.0,51,0.00,,,0.01,meteohub,2013-06-11 23:58:00,
2013-06-11 17:03:00,78.3,58.1,29.92,WSW,247,8.0,9.0,50,0.00,,,0.01,meteohub,2013-06-12 00:03:00,
2013-06-11 17:08:00,78.1,57.9,29.92,WNW,287,4.0,10.0,50,0.00,,,0.01,meteohub,2013-06-12 00:08:00,
2013-06-11 17:13:00,77.7,58.1,29.91,WSW,250,6.0,10.0,51,0.00,,,0.01,meteohub,2013-06-12 00:13:00,
2013-06-11 17:18:00,77.7,58.1,29.92,WSW,249,3.0,10.0,51,0.00,,,0.01,meteohub,2013-06-12 00:18:00,
2013-06-11 17:23:00,77.5,57.9,29.92,SSW,198,5.0,9.0,51,0.00,,,0.01,meteohub,2013-06-12 00:23:00,
2013-06-11 17:28:00,77.5,57.9,29.91,SW,232,4.0,10.0,51,0.00,,,0.01,meteohub,2013-06-12 00:28:00,
2013-06-11 17:33:00,77.4,58.3,29.91,SW,218,4.0,10.0,52,0.00,,,0.01,meteohub,2013-06-12 00:33:00,
2013-06-11 17:38:00,77.2,58.3,29.91,WSW,237,4.0,10.0,52,0.00,,,0.01,meteohub,2013-06-12 00:38:00,
2013-06-11 17:43:00,76.8,57.9,29.91,SSW,205,7.0,10.0,52,0.00,,,0.01,meteohub,2013-06-12 00:43:00,
2013-06-11 17:48:00,76.6,58.3,29.91,WSW,243,4.0,12.0,53,0.00,,,0.01,meteohub,2013-06-12 00:48:00,
2013-06-11 17:53:00,76.5,58.1,29.91,SSW,208,6.0,12.0,53,0.00,,,0.01,meteohub,2013-06-12 00:53:00,
2013-06-11 17:58:00,76.5,58.1,29.91,SW,231,4.0,12.0,53,0.00,,,0.01,meteohub,2013-06-12 00:58:00,
2013-06-11 18:03:00,76.3,57.9,29.91,WSW,249,6.0,9.0,53,0.00,,,0.01,meteohub,2013-06-12 01:03:00,
2013-06-11 18:08:00,75.9,57.6,29.91,SSW,199,7.0,9.0,53,0.00,,,0.01,meteohub,2013-06-12 01:08:00,
2013-06-11 18:13:00,75.6,57.7,29.91,WSW,244,3.0,9.0,54,0.00,,,0.01,meteohub,2013-06-12 01:13:00,
2013-06-11 18:18:00,75.4,57.6,29.91,SW,217,4.0,9.0,54,0.00,,,0.01,meteohub,2013-06-12 01:18:00,
2013-06-11 18:23:00,75.4,58.1,29.91,SW,220,1.0,9.0,55,0.00,,,0.01,meteohub,2013-06-12 01:23:00,
2013-06-11 18:28:00,75.2,57.4,29.90,SSW,208,4.0,9.0,54,0.00,,,0.01,meteohub,2013-06-12 01:28:00,
2013-06-11 18:33:00,74.8,57.6,29.90,SSW,209,5.0,9.0,55,0.00,,,0.01,meteohub,2013-06-12 01:33:00,
2013-06-11 18:38:00,74.7,57.4,29.90,SW,232,2.0,9.0,55,0.00,,,0.01,meteohub,2013-06-12 01:38:00,
2013-06-11 18:43:00,74.5,57.2,29.90,SW,225,5.0,9.0,55,0.00,,,0.01,meteohub,2013-06-12 01:43:00,
2013-06-11 18:48:00,74.1,57.4,29.90,WSW,251,6.0,9.0,56,0.00,,,0.01,meteohub,2013-06-12 01:48:00,
2013-06-11 18:53:00,73.9,57.7,29.90,SW,229,7.0,8.0,57,0.00,,,0.01,meteohub,2013-06-12 01:53:00,
2013-06-11 18:58:00,73.8,57.6,29.90,WSW,237,8.0,8.0,57,0.00,,,0.01,meteohub,2013-06-12 01:58:00,
2013-06-11 19:03:00,73.4,57.7,29.90,WSW,242,4.0,9.0,58,0.00,,,0.01,meteohub,2013-06-12 02:03:00,
2013-06-11 19:08:00,73.0,57.4,29.90,SW,225,3.0,10.0,58,0.00,,,0.01,meteohub,2013-06-12 02:08:00,
2013-06-11 19:13:00,72.9,57.7,29.90,SW,215,5.0,10.0,59,0.00,,,0.01,meteohub,2013-06-12 02:13:00,
2013-06-11 19:18:00,72.5,57.4,29.90,SSW,212,5.0,10.0,59,0.00,,,0.01,meteohub,2013-06-12 02:18:00,
2013-06-11 19:23:00,72.1,57.0,29.90,WSW,242,3.0,9.0,59,0.00,,,0.01,meteohub,2013-06-12 02:23:00,
2013-06-11 19:28:00,72.1,57.6,29.90,WSW,256,6.0,8.0,60,0.00,,,0.01,meteohub,2013-06-12 02:28:00,
2013-06-11 19:33:00,71.8,57.2,29.90,SW,225,4.0,9.0,60,0.00,,,0.01,meteohub,2013-06-12 02:33:00,
2013-06-11 19:38:00,71.6,57.0,29.90,WSW,242,3.0,9.0,60,0.00,,,0.01,meteohub,2013-06-12 02:38:00,
2013-06-11 19:43:00,71.2,57.0,29.89,SSW,211,1.0,9.0,61,0.00,,,0.01,meteohub,2013-06-12 02:43:00,
2013-06-11 19:48:00,71.2,57.0,29.89,WSW,240,7.0,8.0,61,0.00,,,0.01,meteohub,2013-06-12 02:48:00,
2013-06-11 19:53:00,71.1,56.8,29.89,SW,220,4.0,7.0,61,0.00,,,0.01,meteohub,2013-06-12 02:53:00,
2013-06-11 19:58:00,70.5,56.5,29.89,SW,234,4.0,7.0,61,0.00,,,0.01,meteohub,2013-06-12 02:58:00,
2013-06-11 20:03:00,70.2,56.5,29.89,SSW,201,4.0,7.0,62,0.00,,,0.01,meteohub,2013-06-12 03:03:00,
2013-06-11 20:08:00,70.0,56.3,29.89,SSW,204,3.0,7.0,62,0.00,,,0.01,meteohub,2013-06-12 03:08:00,
2013-06-11 20:13:00,69.4,56.3,29.89,WSW,255,2.0,7.0,63,0.00,,,0.01,meteohub,2013-06-12 03:13:00,
2013-06-11 20:18:00,69.1,56.5,29.89,WSW,255,2.0,7.0,64,0.00,,,0.01,meteohub,2013-06-12 03:18:00,
2013-06-11 20:23:00,68.7,56.1,29.89,SW,225,4.0,6.0,64,0.00,,,0.01,meteohub,2013-06-12 03:23:00,
2013-06-11 20:28:00,68.4,56.1,29.89,SW,236,4.0,6.0,65,0.00,,,0.01,meteohub,2013-06-12 03:28:00,
2013-06-11 20:33:00,68.0,56.3,29.88,SW,236,2.0,5.0,66,0.00,,,0.01,meteohub,2013-06-12 03:33:00,
2013-06-11 20:38:00,67.6,55.9,29.88,SW,214,3.0,6.0,66,0.00,,,0.01,meteohub,2013-06-12 03:38:00,
2013-06-11 20:43:00,67.3,55.9,29.88,WSW,237,5.0,6.0,67,0.00,,,0.01,meteohub,2013-06-12 03:43:00,
2013-06-11 20:48:00,66.9,55.6,29.88,WSW,237,4.0,6.0,67,0.00,,,0.01,meteohub,2013-06-12 03:48:00,
2013-06-11 20:53:00,66.7,55.4,29.89,WSW,246,4.0,6.0,67,0.00,,,0.01,meteohub,2013-06-12 03:53:00,
2013-06-11 20:58:00,66.6,55.6,29.89,WSW,238,3.0,6.0,68,0.00,,,0.01,meteohub,2013-06-12 03:58:00,
2013-06-11 21:01:00,66.4,55.6,29.89,SSW,207,3.0,6.0,68,0.00,,,0.01,meteohub,2013-06-12 04:01:00,
2013-06-11 21:07:00,66.0,55.2,29.89,South,182,6.0,6.0,68,0.00,,,0.01,meteohub,2013-06-12 04:07:00,
2013-06-11 21:12:00,65.8,55.0,29.89,WSW,244,3.0,6.0,68,0.00,,,0.01,meteohub,2013-06-12 04:12:00,
2013-06-11 21:17:00,65.8,55.0,29.89,WSW,242,4.0,6.0,68,0.00,,,0.01,meteohub,2013-06-12 04:17:00,
2013-06-11 21:22:00,65.7,54.9,29.89,WSW,246,4.0,6.0,68,0.00,,,0.01,meteohub,2013-06-12 04:22:00,
2013-06-11 21:27:00,65.5,55.0,29.89,SW,214,4.0,6.0,69,0.00,,,0.01,meteohub,2013-06-12 04:27:00,
2013-06-11 21:32:00,65.3,54.9,29.89,SW,233,4.0,6.0,69,0.00,,,0.01,meteohub,2013-06-12 04:32:00,
2013-06-11 21:37:00,65.1,54.7,29.89,SW,218,3.0,6.0,69,0.00,,,0.01,meteohub,2013-06-12 04:37:00,
2013-06-11 21:42:00,65.1,54.7,29.90,SSW,205,3.0,6.0,69,0.00,,,0.01,meteohub,2013-06-12 04:42:00,
2013-06-11 21:47:00,64.9,54.5,29.90,WSW,241,4.0,8.0,69,0.00,,,0.01,meteohub,2013-06-12 04:47:00,
2013-06-11 21:52:00,64.8,54.7,29.90,SW,225,3.0,8.0,70,0.00,,,0.01,meteohub,2013-06-12 04:52:00,
2013-06-11 21:57:00,64.8,54.7,29.90,WSW,245,3.0,8.0,70,0.00,,,0.01,meteohub,2013-06-12 04:57:00,
2013-06-11 22:02:00,64.6,54.5,29.90,SW,225,2.0,7.0,70,0.00,,,0.01,meteohub,2013-06-12 05:02:00,
2013-06-11 22:07:00,64.4,54.3,29.90,SW,226,4.0,7.0,70,0.00,,,0.01,meteohub,2013-06-12 05:07:00,
2013-06-11 22:12:00,64.2,54.3,29.90,SW,222,4.0,7.0,70,0.00,,,0.01,meteohub,2013-06-12 05:12:00,
2013-06-11 22:17:00,64.2,53.8,29.90,SW,224,4.0,7.0,69,0.00,,,0.01,meteohub,2013-06-12 05:17:00,
2013-06-11 22:22:00,64.0,53.6,29.90,SW,227,3.0,7.0,69,0.00,,,0.01,meteohub,2013-06-12 05:22:00,
2013-06-11 22:27:00,63.9,53.4,29.90,WSW,257,2.0,7.0,69,0.00,,,0.01,meteohub,2013-06-12 05:27:00,
2013-06-11 22:32:00,63.7,53.8,29.90,SW,223,1.0,6.0,70,0.00,,,0.01,meteohub,2013-06-12 05:32:00,
2013-06-11 22:37:00,63.5,53.6,29.90,SW,223,2.0,5.0,70,0.00,,,0.01,meteohub,2013-06-12 05:37:00,
2013-06-11 22:42:00,63.1,53.2,29.90,SW,223,2.0,4.0,70,0.00,,,0.01,meteohub,2013-06-12 05:42:00,
2013-06-11 22:47:00,63.0,53.4,29.90,SW,223,1.0,4.0,71,0.00,,,0.01,meteohub,2013-06-12 05:47:00,
2013-06-11 22:52:00,62.6,53.1,29.90,SW,223,3.0,4.0,71,0.00,,,0.01,meteohub,2013-06-12 05:52:00,
2013-06-11 22:57:00,62.2,52.7,29.90,SW,223,2.0,4.0,71,0.00,,,0.01,meteohub,2013-06-12 05:57:00,
2013-06-11 23:02:00,61.9,52.3,29.90,SW,223,2.0,4.0,71,0.00,,,0.01,meteohub,2013-06-12 06:02:00,
2013-06-11 23:07:00,61.5,52.0,29.90,SW,223,1.0,4.0,71,0.00,,,0.01,meteohub,2013-06-12 06:07:00,
2013-06-11 23:12:00,61.2,51.3,29.90,SW,223,2.0,4.0,70,0.00,,,0.01,meteohub,2013-06-12 06:12:00,
2013-06-11 23:17:00,61.0,50.7,29.90,SW,223,2.0,4.0,69,0.00,,,0.01,meteohub,2013-06-12 06:17:00,
2013-06-11 23:22:00,60.6,50.4,29.90,SW,223,1.0,4.0,69,0.00,,,0.01,meteohub,2013-06-12 06:22:00,
2013-06-11 23:27:00,60.4,49.8,29.90,SW,223,1.0,3.0,68,0.00,,,0.01,meteohub,2013-06-12 06:27:00,
2013-06-11 23:32:00,60.1,49.5,29.90,SW,223,2.0,3.0,68,0.00,,,0.01,meteohub,2013-06-12 06:32:00,
2013-06-11 23:37:00,60.1,49.1,29.89,SW,223,1.0,3.0,67,0.00,,,0.01,meteohub,2013-06-12 06:37:00,
2013-06-11 23:42:00,60.1,48.7,29.89,SW,223,0.0,3.0,66,0.00,,,0.01,meteohub,2013-06-12 06:42:00,
2013-06-11 23:47:00,59.7,48.7,29.89,SW,223,0.0,2.0,67,0.00,,,0.01,meteohub,2013-06-12 06:47:00,
2013-06-11 23:52:00,59.5,48.6,29.89,SW,223,0.0,2.0,67,0.00,,,0.01,meteohub,2013-06-12 06:52:00,
2013-06-11 23:57:00,59.4,48.0,29.89,SW,223,2.0,2.0,66,0.00,,,0.01,meteohub,2013-06-12 06:57:00,